METAR Test Message
Issued by NWS Great Falls, MT

Home | Current Version | Previous Version | Text Only | Print | Product List | Glossary On
Versions: 1 2 3 4 5 6 7 8 9 10 11 12 13 14 15 16 17 18 19 20 21 22 23 24 25 26 27 28 29 30 31 32 33 34 35 36 37 38 39 40 41 42 43 44 45 46 47 48 49 50
000
SXUS95 KTFX 070115
MTTTFX

Area AWOS Observations
National Weather Service Great Falls MT
615 PM MST MON DEC 6 2021

METAR KHRF 070110Z AUTO 06004KT 4SM -SN BKN009 OVC020 M02/M03 A2992 RMK AO2 Hamilton


USA.gov is the U.S. government's official web portal to all federal, state and local government web resources and services.